sensor_id;sensor_type;location;lat;lon;timestamp;temperature;humidity
64209;DHT22;50527;52.414;13.226;2023-12-28T07:42:06;8.70;93.60
64209;DHT22;50527;52.414;13.226;2023-12-28T07:44:32;8.70;93.30
64209;DHT22;50527;52.414;13.226;2023-12-28T07:46:57;8.70;93.60
64209;DHT22;50527;52.414;13.226;2023-12-28T07:49:23;8.70;94.00
64209;DHT22;50527;52.414;13.226;2023-12-28T07:51:48;8.70;94.00
64209;DHT22;50527;52.414;13.226;2023-12-28T07:54:14;8.70;93.70
64209;DHT22;50527;52.414;13.226;2023-12-28T07:56:39;8.70;93.50
64209;DHT22;50527;52.414;13.226;2023-12-28T07:59:05;8.80;93.60
64209;DHT22;50527;52.414;13.226;2023-12-28T08:01:31;8.90;93.10
64209;DHT22;50527;52.414;13.226;2023-12-28T08:03:58;9.00;92.70
64209;DHT22;50527;52.414;13.226;2023-12-28T08:06:24;9.00;92.70
64209;DHT22;50527;52.414;13.226;2023-12-28T08:08:49;9.10;92.80
64209;DHT22;50527;52.414;13.226;2023-12-28T08:11:15;9.10;92.40
64209;DHT22;50527;52.414;13.226;2023-12-28T08:13:40;9.10;92.80
64209;DHT22;50527;52.414;13.226;2023-12-28T08:16:06;9.20;92.30
64209;DHT22;50527;52.414;13.226;2023-12-28T08:18:32;9.10;91.90
64209;DHT22;50527;52.414;13.226;2023-12-28T08:20:57;9.20;91.90
64209;DHT22;50527;52.414;13.226;2023-12-28T08:23:24;9.30;91.90
64209;DHT22;50527;52.414;13.226;2023-12-28T08:25:49;9.20;91.80
64209;DHT22;50527;52.414;13.226;2023-12-28T08:28:15;9.20;92.00
64209;DHT22;50527;52.414;13.226;2023-12-28T08:30:42;9.30;91.40
64209;DHT22;50527;52.414;13.226;2023-12-28T08:33:07;9.20;91.70
64209;DHT22;50527;52.414;13.226;2023-12-28T08:35:33;9.30;91.50
64209;DHT22;50527;52.414;13.226;2023-12-28T08:37:59;9.30;91.90
64209;DHT22;50527;52.414;13.226;2023-12-28T08:40:24;9.30;91.60
64209;DHT22;50527;52.414;13.226;2023-12-28T08:42:50;9.30;91.10
64209;DHT22;50527;52.414;13.226;2023-12-28T08:45:16;9.40;91.00
64209;DHT22;50527;52.414;13.226;2023-12-28T08:47:41;9.40;91.30
64209;DHT22;50527;52.414;13.226;2023-12-28T08:50:07;9.40;91.20
64209;DHT22;50527;52.414;13.226;2023-12-28T08:52:33;9.40;91.20
64209;DHT22;50527;52.414;13.226;2023-12-28T08:54:58;9.50;91.30
64209;DHT22;50527;52.414;13.226;2023-12-28T08:57:26;9.40;90.90
64209;DHT22;50527;52.414;13.226;2023-12-28T08:59:51;9.50;90.70
64209;DHT22;50527;52.414;13.226;2023-12-28T09:02:16;9.50;90.70
64209;DHT22;50527;52.414;13.226;2023-12-28T09:04:42;9.60;90.70
64209;DHT22;50527;52.414;13.226;2023-12-28T09:07:07;9.60;90.40
64209;DHT22;50527;52.414;13.226;2023-12-28T09:09:33;9.60;90.20
64209;DHT22;50527;52.414;13.226;2023-12-28T09:11:58;9.60;90.20
64209;DHT22;50527;52.414;13.226;2023-12-28T09:14:24;9.60;90.60
64209;DHT22;50527;52.414;13.226;2023-12-28T09:16:49;9.50;90.60
64209;DHT22;50527;52.414;13.226;2023-12-28T09:19:15;9.60;90.60
64209;DHT22;50527;52.414;13.226;2023-12-28T09:21:40;9.60;90.10
64209;DHT22;50527;52.414;13.226;2023-12-28T09:24:06;9.60;90.50
64209;DHT22;50527;52.414;13.226;2023-12-28T09:26:33;9.60;90.40
64209;DHT22;50527;52.414;13.226;2023-12-28T09:28:59;9.50;90.50
64209;DHT22;50527;52.414;13.226;2023-12-28T09:31:24;9.50;91.30
64209;DHT22;50527;52.414;13.226;2023-12-28T09:33:50;9.50;90.90
64209;DHT22;50527;52.414;13.226;2023-12-28T09:36:15;9.60;90.90
64209;DHT22;50527;52.414;13.226;2023-12-28T09:38:42;9.60;90.80
64209;DHT22;50527;52.414;13.226;2023-12-28T09:41:15;9.50;90.70
64209;DHT22;50527;52.414;13.226;2023-12-28T09:43:54;9.50;91.10
64209;DHT22;50527;52.414;13.226;2023-12-28T09:46:23;9.50;91.10
64209;DHT22;50527;52.414;13.226;2023-12-28T09:48:49;9.60;91.00
64209;DHT22;50527;52.414;13.226;2023-12-28T09:51:15;9.50;90.80
64209;DHT22;50527;52.414;13.226;2023-12-28T09:53:43;9.60;90.60
64209;DHT22;50527;52.414;13.226;2023-12-28T09:56:08;9.50;91.10
64209;DHT22;50527;52.414;13.226;2023-12-28T09:58:35;9.50;91.00
64209;DHT22;50527;52.414;13.226;2023-12-28T10:01:02;9.50;91.30
64209;DHT22;50527;52.414;13.226;2023-12-28T10:03:28;9.50;91.40
64209;DHT22;50527;52.414;13.226;2023-12-28T10:05:53;9.50;91.10
64209;DHT22;50527;52.414;13.226;2023-12-28T10:08:19;9.60;91.10
64209;DHT22;50527;52.414;13.226;2023-12-28T10:10:44;9.50;91.40
64209;DHT22;50527;52.414;13.226;2023-12-28T10:13:17;9.50;91.40
64209;DHT22;50527;52.414;13.226;2023-12-28T10:15:43;9.50;91.50
64209;DHT22;50527;52.414;13.226;2023-12-28T10:18:09;9.50;91.40
64209;DHT22;50527;52.414;13.226;2023-12-28T10:20:34;9.50;91.90
64209;DHT22;50527;52.414;13.226;2023-12-28T10:23:00;9.50;91.40
64209;DHT22;50527;52.414;13.226;2023-12-28T10:25:27;9.50;92.00
64209;DHT22;50527;52.414;13.226;2023-12-28T10:27:53;9.50;91.60
64209;DHT22;50527;52.414;13.226;2023-12-28T10:30:20;9.50;91.60
64209;DHT22;50527;52.414;13.226;2023-12-28T10:32:46;9.50;91.90
64209;DHT22;50527;52.414;13.226;2023-12-28T10:35:12;9.60;91.30
64209;DHT22;50527;52.414;13.226;2023-12-28T10:37:40;9.70;91.70
64209;DHT22;50527;52.414;13.226;2023-12-28T10:40:14;9.80;91.60
64209;DHT22;50527;52.414;13.226;2023-12-28T10:42:58;9.90;91.40
64209;DHT22;50527;52.414;13.226;2023-12-28T10:45:28;9.90;90.60
64209;DHT22;50527;52.414;13.226;2023-12-28T10:48:07;9.90;91.00
64209;DHT22;50527;52.414;13.226;2023-12-28T10:50:39;10.00;91.10
64209;DHT22;50527;52.414;13.226;2023-12-28T10:53:33;10.00;90.80
64209;DHT22;50527;52.414;13.226;2023-12-28T10:56:15;10.00;90.90
64209;DHT22;50527;52.414;13.226;2023-12-28T11:01:16;10.30;90.60
64209;DHT22;50527;52.414;13.226;2023-12-28T11:03:46;10.40;90.10
64209;DHT22;50527;52.414;13.226;2023-12-28T11:06:16;10.50;89.40
64209;DHT22;50527;52.414;13.226;2023-12-28T11:08:43;10.70;89.60
64209;DHT22;50527;52.414;13.226;2023-12-28T11:11:14;10.80;89.30
64209;DHT22;50527;52.414;13.226;2023-12-28T11:13:41;10.80;87.50
64209;DHT22;50527;52.414;13.226;2023-12-28T11:16:07;10.90;88.00
64209;DHT22;50527;52.414;13.226;2023-12-28T11:18:33;10.80;87.90
64209;DHT22;50527;52.414;13.226;2023-12-28T11:20:59;10.90;87.20
64209;DHT22;50527;52.414;13.226;2023-12-28T11:23:25;11.00;85.90
64209;DHT22;50527;52.414;13.226;2023-12-28T11:25:51;11.00;87.10
64209;DHT22;50527;52.414;13.226;2023-12-28T11:28:17;11.10;87.50
64209;DHT22;50527;52.414;13.226;2023-12-28T11:30:42;11.00;85.30
64209;DHT22;50527;52.414;13.226;2023-12-28T11:33:10;11.00;86.00
64209;DHT22;50527;52.414;13.226;2023-12-28T11:35:36;11.10;85.40
64209;DHT22;50527;52.414;13.226;2023-12-28T11:38:05;11.20;85.20
64209;DHT22;50527;52.414;13.226;2023-12-28T11:40:40;11.20;84.40
64209;DHT22;50527;52.414;13.226;2023-12-28T11:43:15;11.10;84.30
64209;DHT22;50527;52.414;13.226;2023-12-28T11:45:47;11.10;85.40
64209;DHT22;50527;52.414;13.226;2023-12-28T11:48:22;11.10;85.70
64209;DHT22;50527;52.414;13.226;2023-12-28T11:50:49;11.00;86.10
64209;DHT22;50527;52.414;13.226;2023-12-28T11:53:15;11.00;85.00
64209;DHT22;50527;52.414;13.226;2023-12-28T11:55:42;11.00;84.70
64209;DHT22;50527;52.414;13.226;2023-12-28T11:58:07;10.90;85.90
64209;DHT22;50527;52.414;13.226;2023-12-28T12:00:32;10.90;86.00
64209;DHT22;50527;52.414;13.226;2023-12-28T12:02:58;10.90;85.80
64209;DHT22;50527;52.414;13.226;2023-12-28T12:05:23;10.90;85.70
64209;DHT22;50527;52.414;13.226;2023-12-28T12:07:49;10.90;85.40
64209;DHT22;50527;52.414;13.226;2023-12-28T12:10:15;10.80;86.00
64209;DHT22;50527;52.414;13.226;2023-12-28T12:12:41;10.80;87.10
64209;DHT22;50527;52.414;13.226;2023-12-28T12:15:08;10.70;87.20
64209;DHT22;50527;52.414;13.226;2023-12-28T12:17:34;10.70;86.50
64209;DHT22;50527;52.414;13.226;2023-12-28T12:19:59;10.70;86.60
64209;DHT22;50527;52.414;13.226;2023-12-28T12:22:27;10.80;87.00
64209;DHT22;50527;52.414;13.226;2023-12-28T12:24:53;10.80;86.60
64209;DHT22;50527;52.414;13.226;2023-12-28T12:27:21;10.80;86.50
64209;DHT22;50527;52.414;13.226;2023-12-28T12:29:46;10.80;87.20
64209;DHT22;50527;52.414;13.226;2023-12-28T12:32:12;10.70;87.00
64209;DHT22;50527;52.414;13.226;2023-12-28T12:34:39;10.70;88.10
64209;DHT22;50527;52.414;13.226;2023-12-28T12:37:05;10.70;88.00
64209;DHT22;50527;52.414;13.226;2023-12-28T12:39:30;10.70;87.70
64209;DHT22;50527;52.414;13.226;2023-12-28T12:41:56;10.70;87.50
64209;DHT22;50527;52.414;13.226;2023-12-28T12:44:23;10.70;87.70
64209;DHT22;50527;52.414;13.226;2023-12-28T12:46:48;10.70;87.20
64209;DHT22;50527;52.414;13.226;2023-12-28T12:49:21;10.80;87.80
64209;DHT22;50527;52.414;13.226;2023-12-28T12:51:48;10.70;87.90
64209;DHT22;50527;52.414;13.226;2023-12-28T12:54:17;10.70;87.70
64209;DHT22;50527;52.414;13.226;2023-12-28T12:56:44;10.80;87.60
64209;DHT22;50527;52.414;13.226;2023-12-28T12:59:11;10.70;88.30
64209;DHT22;50527;52.414;13.226;2023-12-28T13:01:41;10.80;88.20
64209;DHT22;50527;52.414;13.226;2023-12-28T13:04:07;10.70;88.40
64209;DHT22;50527;52.414;13.226;2023-12-28T13:06:32;10.70;87.80
64209;DHT22;50527;52.414;13.226;2023-12-28T13:08:58;10.70;89.00
64209;DHT22;50527;52.414;13.226;2023-12-28T13:11:23;10.70;87.40
64209;DHT22;50527;52.414;13.226;2023-12-28T13:13:54;10.70;87.50
64209;DHT22;50527;52.414;13.226;2023-12-28T13:16:19;10.70;88.00
64209;DHT22;50527;52.414;13.226;2023-12-28T13:18:45;10.70;87.30
64209;DHT22;50527;52.414;13.226;2023-12-28T13:21:10;10.80;87.40
64209;DHT22;50527;52.414;13.226;2023-12-28T13:23:36;10.80;88.10
64209;DHT22;50527;52.414;13.226;2023-12-28T13:26:01;10.80;88.00
64209;DHT22;50527;52.414;13.226;2023-12-28T13:28:27;10.80;87.50
64209;DHT22;50527;52.414;13.226;2023-12-28T13:30:52;10.80;87.70
64209;DHT22;50527;52.414;13.226;2023-12-28T13:33:21;10.70;87.10
64209;DHT22;50527;52.414;13.226;2023-12-28T13:35:46;10.80;86.90
64209;DHT22;50527;52.414;13.226;2023-12-28T13:38:12;10.80;87.00
64209;DHT22;50527;52.414;13.226;2023-12-28T13:40:37;10.80;87.40
64209;DHT22;50527;52.414;13.226;2023-12-28T13:43:03;10.80;87.10
64209;DHT22;50527;52.414;13.226;2023-12-28T13:45:28;10.80;87.50
64209;DHT22;50527;52.414;13.226;2023-12-28T13:47:54;10.80;87.20
64209;DHT22;50527;52.414;13.226;2023-12-28T13:50:19;10.80;87.30
64209;DHT22;50527;52.414;13.226;2023-12-28T13:52:45;10.90;87.50
64209;DHT22;50527;52.414;13.226;2023-12-28T13:55:11;10.90;87.70
64209;DHT22;50527;52.414;13.226;2023-12-28T13:57:37;10.90;87.10
64209;DHT22;50527;52.414;13.226;2023-12-28T14:00:02;10.90;87.00
64209;DHT22;50527;52.414;13.226;2023-12-28T14:02:28;11.00;86.30
64209;DHT22;50527;52.414;13.226;2023-12-28T14:04:54;11.00;86.60
64209;DHT22;50527;52.414;13.226;2023-12-28T14:07:21;10.90;86.60
64209;DHT22;50527;52.414;13.226;2023-12-28T14:09:47;11.00;86.20
64209;DHT22;50527;52.414;13.226;2023-12-28T14:12:12;11.00;86.10
64209;DHT22;50527;52.414;13.226;2023-12-28T14:14:38;10.90;86.80
64209;DHT22;50527;52.414;13.226;2023-12-28T14:17:03;10.90;86.30
64209;DHT22;50527;52.414;13.226;2023-12-28T14:19:30;10.90;87.10
64209;DHT22;50527;52.414;13.226;2023-12-28T14:21:56;10.90;86.60
64209;DHT22;50527;52.414;13.226;2023-12-28T14:24:22;10.80;87.00
64209;DHT22;50527;52.414;13.226;2023-12-28T14:26:48;10.80;87.30
64209;DHT22;50527;52.414;13.226;2023-12-28T14:29:16;10.80;87.00
64209;DHT22;50527;52.414;13.226;2023-12-28T14:31:42;10.70;87.40
64209;DHT22;50527;52.414;13.226;2023-12-28T14:34:09;10.70;87.50
64209;DHT22;50527;52.414;13.226;2023-12-28T14:36:36;10.60;88.00
64209;DHT22;50527;52.414;13.226;2023-12-28T14:39:04;10.50;87.30
64209;DHT22;50527;52.414;13.226;2023-12-28T14:41:31;10.50;88.60
64209;DHT22;50527;52.414;13.226;2023-12-28T14:43:56;10.50;88.10
64209;DHT22;50527;52.414;13.226;2023-12-28T14:46:23;10.50;89.10
64209;DHT22;50527;52.414;13.226;2023-12-28T14:48:53;10.40;88.60
64209;DHT22;50527;52.414;13.226;2023-12-28T14:51:19;10.30;88.70
64209;DHT22;50527;52.414;13.226;2023-12-28T14:53:45;10.30;89.10
64209;DHT22;50527;52.414;13.226;2023-12-28T14:56:10;10.30;88.80
64209;DHT22;50527;52.414;13.226;2023-12-28T14:58:37;10.20;89.20
64209;DHT22;50527;52.414;13.226;2023-12-28T15:01:03;10.10;89.80
64209;DHT22;50527;52.414;13.226;2023-12-28T15:03:28;10.10;89.80
64209;DHT22;50527;52.414;13.226;2023-12-28T15:05:54;10.10;89.50
64209;DHT22;50527;52.414;13.226;2023-12-28T15:08:21;10.10;90.20
64209;DHT22;50527;52.414;13.226;2023-12-28T15:10:47;10.10;90.10
64209;DHT22;50527;52.414;13.226;2023-12-28T15:13:12;10.10;90.10
64209;DHT22;50527;52.414;13.226;2023-12-28T15:15:38;9.90;90.40
64209;DHT22;50527;52.414;13.226;2023-12-28T15:18:04;9.90;90.90
64209;DHT22;50527;52.414;13.226;2023-12-28T15:20:30;9.90;91.00
64209;DHT22;50527;52.414;13.226;2023-12-28T15:22:56;9.80;91.20
64209;DHT22;50527;52.414;13.226;2023-12-28T15:25:21;9.80;91.30
64209;DHT22;50527;52.414;13.226;2023-12-28T15:27:47;9.80;91.20
64209;DHT22;50527;52.414;13.226;2023-12-28T15:30:13;9.80;91.10
64209;DHT22;50527;52.414;13.226;2023-12-28T15:32:39;9.80;91.00
64209;DHT22;50527;52.414;13.226;2023-12-28T15:35:06;9.70;91.00
64209;DHT22;50527;52.414;13.226;2023-12-28T15:37:32;9.70;91.00
64209;DHT22;50527;52.414;13.226;2023-12-28T15:39:57;9.70;91.30
64209;DHT22;50527;52.414;13.226;2023-12-28T15:42:23;9.70;91.30
64209;DHT22;50527;52.414;13.226;2023-12-28T15:44:48;9.70;91.50
64209;DHT22;50527;52.414;13.226;2023-12-28T15:47:14;9.60;91.60
64209;DHT22;50527;52.414;13.226;2023-12-28T15:49:39;9.60;91.50
64209;DHT22;50527;52.414;13.226;2023-12-28T15:52:05;9.60;92.00
64209;DHT22;50527;52.414;13.226;2023-12-28T15:54:30;9.60;91.80
64209;DHT22;50527;52.414;13.226;2023-12-28T15:56:56;9.50;91.80
64209;DHT22;50527;52.414;13.226;2023-12-28T15:59:21;9.50;92.00
64209;DHT22;50527;52.414;13.226;2023-12-28T16:01:46;9.50;92.30
64209;DHT22;50527;52.414;13.226;2023-12-28T16:04:12;9.50;92.10
64209;DHT22;50527;52.414;13.226;2023-12-28T16:06:37;9.60;92.20
64209;DHT22;50527;52.414;13.226;2023-12-28T16:09:03;9.50;92.10
64209;DHT22;50527;52.414;13.226;2023-12-28T16:11:31;9.50;91.90
64209;DHT22;50527;52.414;13.226;2023-12-28T16:13:57;9.50;92.30
64209;DHT22;50527;52.414;13.226;2023-12-28T16:16:23;9.50;92.10
64209;DHT22;50527;52.414;13.226;2023-12-28T16:18:49;9.60;91.70
64209;DHT22;50527;52.414;13.226;2023-12-28T16:21:14;9.50;91.80
64209;DHT22;50527;52.414;13.226;2023-12-28T16:23:40;9.50;92.40
64209;DHT22;50527;52.414;13.226;2023-12-28T16:26:06;9.40;92.30
64209;DHT22;50527;52.414;13.226;2023-12-28T16:28:32;9.40;92.30
64209;DHT22;50527;52.414;13.226;2023-12-28T16:30:59;9.40;92.10
64209;DHT22;50527;52.414;13.226;2023-12-28T16:33:25;9.40;92.50
64209;DHT22;50527;52.414;13.226;2023-12-28T16:35:50;9.40;92.50
64209;DHT22;50527;52.414;13.226;2023-12-28T16:38:16;9.40;92.30
64209;DHT22;50527;52.414;13.226;2023-12-28T16:40:42;9.40;92.70
64209;DHT22;50527;52.414;13.226;2023-12-28T16:43:08;9.40;92.30
64209;DHT22;50527;52.414;13.226;2023-12-28T16:45:33;9.40;92.50
64209;DHT22;50527;52.414;13.226;2023-12-28T16:47:59;9.40;92.40
64209;DHT22;50527;52.414;13.226;2023-12-28T16:50:24;9.30;92.40
64209;DHT22;50527;52.414;13.226;2023-12-28T16:52:53;9.40;92.70
64209;DHT22;50527;52.414;13.226;2023-12-28T16:55:20;9.30;92.70
64209;DHT22;50527;52.414;13.226;2023-12-28T16:57:45;9.30;92.80
64209;DHT22;50527;52.414;13.226;2023-12-28T17:00:11;9.30;92.60
64209;DHT22;50527;52.414;13.226;2023-12-28T17:02:37;9.30;92.60
64209;DHT22;50527;52.414;13.226;2023-12-28T17:05:02;9.30;92.80
64209;DHT22;50527;52.414;13.226;2023-12-28T17:07:30;9.40;92.70
64209;DHT22;50527;52.414;13.226;2023-12-28T17:09:55;9.40;92.70
64209;DHT22;50527;52.414;13.226;2023-12-28T17:12:33;9.40;92.60
64209;DHT22;50527;52.414;13.226;2023-12-28T17:15:00;9.40;92.30
64209;DHT22;50527;52.414;13.226;2023-12-28T17:17:27;9.40;92.10
64209;DHT22;50527;52.414;13.226;2023-12-28T17:19:53;9.40;92.20
64209;DHT22;50527;52.414;13.226;2023-12-28T17:22:19;9.40;92.30
64209;DHT22;50527;52.414;13.226;2023-12-28T17:24:55;9.40;92.00
64209;DHT22;50527;52.414;13.226;2023-12-28T17:27:28;9.40;91.80
64209;DHT22;50527;52.414;13.226;2023-12-28T17:29:54;9.40;91.80
64209;DHT22;50527;52.414;13.226;2023-12-28T17:32:22;9.40;91.60
64209;DHT22;50527;52.414;13.226;2023-12-28T17:34:48;9.40;91.40
64209;DHT22;50527;52.414;13.226;2023-12-28T17:37:14;9.40;92.00
64209;DHT22;50527;52.414;13.226;2023-12-28T17:39:40;9.40;91.60
64209;DHT22;50527;52.414;13.226;2023-12-28T17:42:07;9.50;91.30
64209;DHT22;50527;52.414;13.226;2023-12-28T17:44:37;9.50;91.20
64209;DHT22;50527;52.414;13.226;2023-12-28T17:47:14;9.50;91.30
64209;DHT22;50527;52.414;13.226;2023-12-28T17:49:42;9.60;90.60
64209;DHT22;50527;52.414;13.226;2023-12-28T17:52:13;9.60;90.80
64209;DHT22;50527;52.414;13.226;2023-12-28T17:54:41;9.60;90.80
64209;DHT22;50527;52.414;13.226;2023-12-28T17:57:07;9.60;90.70
64209;DHT22;50527;52.414;13.226;2023-12-28T17:59:32;9.50;90.60
64209;DHT22;50527;52.414;13.226;2023-12-28T18:01:57;9.50;90.70
64209;DHT22;50527;52.414;13.226;2023-12-28T18:04:23;9.50;90.70
64209;DHT22;50527;52.414;13.226;2023-12-28T18:06:49;9.40;90.80
64209;DHT22;50527;52.414;13.226;2023-12-28T18:09:16;9.50;90.80
64209;DHT22;50527;52.414;13.226;2023-12-28T18:11:42;9.40;91.10
64209;DHT22;50527;52.414;13.226;2023-12-28T18:14:08;9.50;90.50
64209;DHT22;50527;52.414;13.226;2023-12-28T18:16:33;9.50;90.80
64209;DHT22;50527;52.414;13.226;2023-12-28T18:19:00;9.50;90.70
64209;DHT22;50527;52.414;13.226;2023-12-28T18:21:27;9.40;91.00
64209;DHT22;50527;52.414;13.226;2023-12-28T18:23:54;9.40;90.90
64209;DHT22;50527;52.414;13.226;2023-12-28T18:26:20;9.30;91.10
64209;DHT22;50527;52.414;13.226;2023-12-28T18:28:46;9.30;91.00
64209;DHT22;50527;52.414;13.226;2023-12-28T18:31:12;9.30;91.10
64209;DHT22;50527;52.414;13.226;2023-12-28T18:33:39;9.30;91.10
64209;DHT22;50527;52.414;13.226;2023-12-28T18:36:05;9.30;91.00
64209;DHT22;50527;52.414;13.226;2023-12-28T18:38:34;9.30;90.90
64209;DHT22;50527;52.414;13.226;2023-12-28T18:41:00;9.30;91.10
64209;DHT22;50527;52.414;13.226;2023-12-28T18:43:26;9.20;91.00
64209;DHT22;50527;52.414;13.226;2023-12-28T18:45:52;9.30;91.20
64209;DHT22;50527;52.414;13.226;2023-12-28T18:48:18;9.40;90.80
64209;DHT22;50527;52.414;13.226;2023-12-28T18:50:44;9.40;90.70
64209;DHT22;50527;52.414;13.226;2023-12-28T18:53:10;9.30;91.00
64209;DHT22;50527;52.414;13.226;2023-12-28T18:55:39;9.30;90.80
64209;DHT22;50527;52.414;13.226;2023-12-28T18:58:05;9.20;91.00
64209;DHT22;50527;52.414;13.226;2023-12-28T19:00:35;9.30;91.20
64209;DHT22;50527;52.414;13.226;2023-12-28T19:03:02;9.40;90.80
64209;DHT22;50527;52.414;13.226;2023-12-28T19:05:32;9.30;90.80
64209;DHT22;50527;52.414;13.226;2023-12-28T19:07:58;9.30;91.00
64209;DHT22;50527;52.414;13.226;2023-12-28T19:10:27;9.20;90.60
64209;DHT22;50527;52.414;13.226;2023-12-28T19:12:53;9.30;91.20
64209;DHT22;50527;52.414;13.226;2023-12-28T19:15:19;9.30;90.90
64209;DHT22;50527;52.414;13.226;2023-12-28T19:17:44;9.30;90.90
64209;DHT22;50527;52.414;13.226;2023-12-28T19:20:10;9.30;91.00
64209;DHT22;50527;52.414;13.226;2023-12-28T19:22:37;9.20;91.00
64209;DHT22;50527;52.414;13.226;2023-12-28T19:25:03;9.20;90.90
64209;DHT22;50527;52.414;13.226;2023-12-28T19:27:28;9.30;90.80
64209;DHT22;50527;52.414;13.226;2023-12-28T19:29:55;9.30;90.50
64209;DHT22;50527;52.414;13.226;2023-12-28T19:32:23;9.30;90.80
64209;DHT22;50527;52.414;13.226;2023-12-28T19:34:49;9.30;90.60
64209;DHT22;50527;52.414;13.226;2023-12-28T19:37:15;9.20;90.80
64209;DHT22;50527;52.414;13.226;2023-12-28T19:39:40;9.20;91.00
64209;DHT22;50527;52.414;13.226;2023-12-28T19:42:08;9.10;91.40
64209;DHT22;50527;52.414;13.226;2023-12-28T19:44:34;9.20;91.50
64209;DHT22;50527;52.414;13.226;2023-12-28T19:46:59;9.20;90.90
64209;DHT22;50527;52.414;13.226;2023-12-28T19:49:25;9.20;90.80
64209;DHT22;50527;52.414;13.226;2023-12-28T19:51:52;9.20;90.70
64209;DHT22;50527;52.414;13.226;2023-12-28T19:54:18;9.10;90.90
64209;DHT22;50527;52.414;13.226;2023-12-28T19:56:43;9.20;91.00
64209;DHT22;50527;52.414;13.226;2023-12-28T19:59:11;9.20;90.80
64209;DHT22;50527;52.414;13.226;2023-12-28T20:01:36;9.10;91.30
64209;DHT22;50527;52.414;13.226;2023-12-28T20:04:07;9.10;91.00
64209;DHT22;50527;52.414;13.226;2023-12-28T20:06:33;9.10;90.90
64209;DHT22;50527;52.414;13.226;2023-12-28T20:08:58;9.20;91.20
64209;DHT22;50527;52.414;13.226;2023-12-28T20:11:24;9.20;90.70
64209;DHT22;50527;52.414;13.226;2023-12-28T20:13:50;9.10;90.80
64209;DHT22;50527;52.414;13.226;2023-12-28T20:16:16;9.10;91.10
64209;DHT22;50527;52.414;13.226;2023-12-28T20:18:42;9.10;90.90
64209;DHT22;50527;52.414;13.226;2023-12-28T20:21:07;9.10;90.80
64209;DHT22;50527;52.414;13.226;2023-12-28T20:23:33;9.10;91.30
64209;DHT22;50527;52.414;13.226;2023-12-28T20:25:59;9.10;90.90
64209;DHT22;50527;52.414;13.226;2023-12-28T20:28:25;9.00;91.40
64209;DHT22;50527;52.414;13.226;2023-12-28T20:30:50;9.00;91.60
64209;DHT22;50527;52.414;13.226;2023-12-28T20:33:16;9.00;91.20
64209;DHT22;50527;52.414;13.226;2023-12-28T20:35:41;9.00;91.30
64209;DHT22;50527;52.414;13.226;2023-12-28T20:38:07;9.00;91.20
64209;DHT22;50527;52.414;13.226;2023-12-28T20:40:32;8.90;91.60
64209;DHT22;50527;52.414;13.226;2023-12-28T20:42:58;9.00;91.40
64209;DHT22;50527;52.414;13.226;2023-12-28T20:45:23;8.90;91.90
64209;DHT22;50527;52.414;13.226;2023-12-28T20:47:49;8.90;91.80
64209;DHT22;50527;52.414;13.226;2023-12-28T20:50:15;8.90;91.50
64209;DHT22;50527;52.414;13.226;2023-12-28T20:52:40;8.90;91.40
64209;DHT22;50527;52.414;13.226;2023-12-28T20:55:06;8.90;91.80
64209;DHT22;50527;52.414;13.226;2023-12-28T20:57:32;8.80;91.90
64209;DHT22;50527;52.414;13.226;2023-12-28T20:59:58;8.90;92.10
64209;DHT22;50527;52.414;13.226;2023-12-28T21:02:24;8.90;91.80
64209;DHT22;50527;52.414;13.226;2023-12-28T21:04:49;8.80;91.60
64209;DHT22;50527;52.414;13.226;2023-12-28T21:07:15;8.70;92.10
64209;DHT22;50527;52.414;13.226;2023-12-28T21:09:41;8.70;92.00
64209;DHT22;50527;52.414;13.226;2023-12-28T21:12:08;8.60;92.40
64209;DHT22;50527;52.414;13.226;2023-12-28T21:14:35;8.60;92.50
64209;DHT22;50527;52.414;13.226;2023-12-28T21:17:05;8.50;92.60
64209;DHT22;50527;52.414;13.226;2023-12-28T21:19:31;8.60;92.50
64209;DHT22;50527;52.414;13.226;2023-12-28T21:21:57;8.60;92.60
64209;DHT22;50527;52.414;13.226;2023-12-28T21:24:23;8.60;92.40
64209;DHT22;50527;52.414;13.226;2023-12-28T21:26:49;8.60;92.40
64209;DHT22;50527;52.414;13.226;2023-12-28T21:29:14;8.50;92.90
64209;DHT22;50527;52.414;13.226;2023-12-28T21:31:40;8.50;92.60
64209;DHT22;50527;52.414;13.226;2023-12-28T21:34:05;8.50;92.90
64209;DHT22;50527;52.414;13.226;2023-12-28T21:36:31;8.50;92.70
64209;DHT22;50527;52.414;13.226;2023-12-28T21:38:58;8.50;92.60
64209;DHT22;50527;52.414;13.226;2023-12-28T21:41:25;8.50;92.90
64209;DHT22;50527;52.414;13.226;2023-12-28T21:43:51;8.60;92.50
64209;DHT22;50527;52.414;13.226;2023-12-28T21:46:17;8.60;92.50
64209;DHT22;50527;52.414;13.226;2023-12-28T21:48:43;8.60;92.80
64209;DHT22;50527;52.414;13.226;2023-12-28T21:51:09;8.60;92.50
64209;DHT22;50527;52.414;13.226;2023-12-28T21:53:35;8.60;92.50
64209;DHT22;50527;52.414;13.226;2023-12-28T21:56:01;8.60;92.70
64209;DHT22;50527;52.414;13.226;2023-12-28T21:58:27;8.60;92.80
64209;DHT22;50527;52.414;13.226;2023-12-28T22:00:53;8.70;92.70
64209;DHT22;50527;52.414;13.226;2023-12-28T22:03:19;8.70;92.70
64209;DHT22;50527;52.414;13.226;2023-12-28T22:05:45;8.70;92.90
64209;DHT22;50527;52.414;13.226;2023-12-28T22:08:11;8.80;92.90
64209;DHT22;50527;52.414;13.226;2023-12-28T22:10:38;8.70;92.90
64209;DHT22;50527;52.414;13.226;2023-12-28T22:13:05;8.70;92.70
64209;DHT22;50527;52.414;13.226;2023-12-28T22:15:31;8.70;93.00
64209;DHT22;50527;52.414;13.226;2023-12-28T22:17:57;8.60;92.80
64209;DHT22;50527;52.414;13.226;2023-12-28T22:20:23;8.60;93.30
64209;DHT22;50527;52.414;13.226;2023-12-28T22:22:49;8.60;93.00
64209;DHT22;50527;52.414;13.226;2023-12-28T22:25:15;8.70;93.10
64209;DHT22;50527;52.414;13.226;2023-12-28T22:27:43;8.60;92.70
64209;DHT22;50527;52.414;13.226;2023-12-28T22:30:10;8.60;93.20
64209;DHT22;50527;52.414;13.226;2023-12-28T22:32:36;8.60;93.00
64209;DHT22;50527;52.414;13.226;2023-12-28T22:35:01;8.60;93.00
64209;DHT22;50527;52.414;13.226;2023-12-28T22:37:27;8.60;93.20
64209;DHT22;50527;52.414;13.226;2023-12-28T22:39:52;8.60;92.90
64209;DHT22;50527;52.414;13.226;2023-12-28T22:42:18;8.60;93.10
64209;DHT22;50527;52.414;13.226;2023-12-28T22:44:44;8.60;93.00
64209;DHT22;50527;52.414;13.226;2023-12-28T22:47:10;8.60;93.10
64209;DHT22;50527;52.414;13.226;2023-12-28T22:49:35;8.60;92.70
64209;DHT22;50527;52.414;13.226;2023-12-28T22:52:01;8.60;92.90
64209;DHT22;50527;52.414;13.226;2023-12-28T22:54:27;8.60;92.80
64209;DHT22;50527;52.414;13.226;2023-12-28T22:56:53;8.50;92.90
64209;DHT22;50527;52.414;13.226;2023-12-28T22:59:19;8.60;93.00
64209;DHT22;50527;52.414;13.226;2023-12-28T23:01:44;8.50;93.20
64209;DHT22;50527;52.414;13.226;2023-12-28T23:04:10;8.50;93.40
64209;DHT22;50527;52.414;13.226;2023-12-28T23:06:35;8.40;93.20